Home   Weather   Mürren   Past weeks
Flag for Switzerland

Past Weather in Mürren, Bern, Switzerland — October 2020

Currently: 61 °F. Partly sunny. (Weather station: Bern / Belp, Switzerland). See more current weather

October 2020 Weather in Mürren — Graph

°F

High & Low Weather Summary for October 2020

 TemperatureHumidityPressure
High66 °F (Oct 8, 3:50 pm)100% (Oct 1, 12:20 am)30.33 "Hg (Oct 1, 12:20 am)
Low32 °F (Oct 13, 4:20 am)49% (Oct 21, 3:50 pm)29.15 "Hg (Oct 2, 2:20 pm)
Average49 °F88%29.96 "Hg
* Reported Oct 1 12:20 am — Oct 31 11:50 pm, Mürren. Weather by CustomWeather, © 2021

Note: Actual official high and low records may vary slightly from our data, if they occured in-between our weather recording intervals... More about our weather records

Mürren Weather History for October 1, 2020

Scroll right to see more
 ConditionsComfort  
Time TempWeatherWind HumidityBarometerVisibility
12:20 am
Thu, Oct 1
46 °FFog.1 mph100%29.92 "Hg0 mi
12:50 am46 °FFog.2 mph100%29.92 "Hg2 mi
1:20 am48 °FPassing clouds.1 mph100%29.89 "Hg3 mi
1:50 am48 °FPassing clouds.1 mph100%29.89 "Hg4 mi
2:20 am48 °FOvercast.No wind100%29.89 "Hg4 mi
2:50 am48 °FOvercast.3 mph100%29.86 "Hg3 mi
3:20 am50 °FOvercast.3 mph100%29.86 "Hg4 mi
3:50 am50 °FOvercast.3 mph100%29.83 "Hg4 mi
4:20 am50 °FPassing clouds.2 mph100%29.83 "Hg3 mi
4:50 am50 °FLow clouds.3 mph100%29.83 "Hg3 mi
5:20 am50 °FOvercast.2 mph100%29.83 "Hg4 mi
5:50 am50 °FOvercast.1 mph100%29.80 "Hg4 mi
6:20 am50 °FOvercast.3 mph100%29.80 "Hg4 mi
6:50 am50 °FLow clouds.1 mph100%29.80 "Hg6 mi
7:20 am52 °FOvercast.3 mph100%29.80 "HgN/A
7:50 am52 °FMostly cloudy.5 mph100%29.77 "HgN/A
8:20 am52 °FPartly sunny.6 mph100%29.77 "HgN/A
8:50 am52 °FPartly sunny.7 mph100%29.77 "HgN/A
9:20 am54 °FScattered clouds.7 mph94%29.77 "HgN/A
9:50 am54 °FPassing clouds.6 mph94%29.74 "HgN/A
10:20 am55 °FScattered clouds.3 mph88%29.74 "HgN/A
10:50 am55 °FScattered clouds.3 mph82%29.74 "HgN/A
11:20 am59 °FPartly sunny.3 mph77%29.74 "HgN/A
11:50 am61 °FBroken clouds.3 mph72%29.74 "HgN/A
12:20 pm61 °FPassing clouds.3 mph77%29.74 "HgN/A
12:50 pm59 °FPartly sunny.2 mph77%29.74 "HgN/A
1:20 pm61 °FPartly sunny.6 mph72%29.74 "HgN/A
1:50 pm61 °FPartly sunny.5 mph77%29.74 "HgN/A
2:20 pm61 °FPartly sunny.3 mph72%29.71 "HgN/A
2:50 pm61 °FBroken clouds.6 mph77%29.71 "HgN/A
3:20 pm61 °FOvercast.8 mph72%29.71 "HgN/A
3:50 pm61 °FPartly sunny.16 mph63%29.71 "HgN/A
4:20 pm59 °FBroken clouds.13 mph72%29.71 "HgN/A
4:50 pm59 °FBroken clouds.14 mph72%29.71 "HgN/A
5:20 pm59 °FLight rain. Broken clouds.9 mph72%29.71 "HgN/A
5:50 pm59 °FPartly sunny.15 mph72%29.71 "HgN/A
6:20 pm59 °FLight rain. Broken clouds.9 mph72%29.71 "HgN/A
6:50 pm57 °FLight rain. Scattered clouds.12 mph72%29.71 "HgN/A
7:20 pm57 °FPartly cloudy.9 mph67%29.71 "HgN/A
7:50 pm57 °FPartly cloudy.5 mph67%29.71 "HgN/A
8:20 pm55 °FPassing clouds.5 mph77%29.71 "HgN/A
8:50 pm54 °FPassing clouds.3 mph94%29.71 "HgN/A
9:20 pm54 °FPassing clouds.No wind94%29.71 "HgN/A
10:20 pm52 °FPassing clouds.1 mph100%29.68 "HgN/A
10:50 pm52 °FMostly cloudy.2 mph100%29.68 "HgN/A
11:20 pm50 °FPassing clouds.1 mph100%29.65 "HgN/A
11:50 pm52 °FPartly cloudy.1 mph100%29.65 "HgN/A
Weather by CustomWeather, © 2021

See weather overview